createdAt,value
2022-07-31T00:00:23.575Z,100.00
2022-07-31T00:02:51.623Z,100.00
2022-07-31T00:05:19.479Z,100.00
2022-07-31T00:07:48.590Z,100.00
2022-07-31T00:10:16.772Z,100.00
2022-07-31T00:12:44.544Z,100.00
2022-07-31T00:15:13.598Z,100.00
2022-07-31T00:17:42.033Z,100.00
2022-07-31T00:20:13.368Z,100.00
2022-07-31T00:22:41.323Z,100.00
2022-07-31T00:25:12.478Z,100.00
2022-07-31T00:27:40.595Z,100.00
2022-07-31T00:30:09.728Z,100.00
2022-07-31T00:32:37.498Z,100.00
2022-07-31T00:35:05.808Z,100.00
2022-07-31T00:37:36.475Z,100.00
2022-07-31T00:40:06.198Z,100.00
2022-07-31T00:42:36.170Z,100.00
2022-07-31T00:45:04.775Z,100.00
2022-07-31T00:47:33.587Z,100.00
2022-07-31T00:50:01.649Z,100.00
2022-07-31T00:52:29.413Z,100.00
2022-07-31T00:54:57.298Z,100.00
2022-07-31T00:57:25.077Z,100.00
2022-07-31T00:59:54.291Z,100.00
2022-07-31T01:02:22.076Z,100.00
2022-07-31T01:04:49.850Z,100.00
2022-07-31T01:07:18.033Z,100.00
2022-07-31T01:09:49.854Z,100.00
2022-07-31T01:12:22.464Z,100.00
2022-07-31T01:14:58.033Z,100.00
2022-07-31T01:17:27.672Z,100.00
2022-07-31T01:19:55.684Z,100.00
2022-07-31T01:22:45.626Z,100.00
2022-07-31T01:25:23.300Z,100.00
2022-07-31T01:28:03.517Z,100.00
2022-07-31T01:30:36.615Z,100.00
2022-07-31T01:33:10.306Z,100.00
2022-07-31T01:35:43.523Z,100.00
2022-07-31T01:38:15.136Z,100.00
2022-07-31T01:40:45.358Z,100.00
2022-07-31T01:43:17.382Z,100.00
2022-07-31T01:45:51.233Z,100.00
2022-07-31T01:48:19.747Z,100.00
2022-07-31T01:50:49.646Z,100.00
2022-07-31T01:53:21.157Z,100.00
2022-07-31T01:56:02.408Z,100.00
2022-07-31T01:58:36.707Z,100.00
2022-07-31T02:01:08.921Z,100.00
2022-07-31T02:03:44.432Z,100.00
2022-07-31T02:06:15.898Z,100.00
2022-07-31T02:08:46.365Z,100.00
2022-07-31T02:11:16.780Z,100.00
2022-07-31T02:13:45.465Z,100.00
2022-07-31T02:16:15.947Z,100.00
2022-07-31T02:18:44.454Z,100.00
2022-07-31T02:21:12.290Z,100.00
2022-07-31T02:23:40.146Z,100.00
2022-07-31T02:26:08.694Z,100.00
2022-07-31T02:28:39.012Z,100.00
2022-07-31T02:31:11.635Z,100.00
2022-07-31T02:33:44.936Z,100.00
2022-07-31T02:36:14.911Z,100.00
2022-07-31T02:38:44.633Z,100.00
2022-07-31T02:41:14.097Z,100.00
2022-07-31T02:43:42.611Z,100.00
2022-07-31T02:46:11.605Z,100.00
2022-07-31T02:48:41.550Z,100.00
2022-07-31T02:51:09.825Z,100.00
2022-07-31T02:53:38.941Z,100.00
2022-07-31T02:56:09.302Z,100.00
2022-07-31T02:58:39.503Z,100.00
2022-07-31T03:01:07.652Z,100.00
2022-07-31T03:03:36.106Z,100.00
2022-07-31T03:06:05.609Z,100.00
2022-07-31T03:08:33.386Z,100.00
2022-07-31T03:11:01.391Z,100.00
2022-07-31T03:13:31.565Z,100.00
2022-07-31T03:15:59.852Z,100.00
2022-07-31T03:18:28.260Z,100.00
2022-07-31T03:20:57.345Z,100.00
2022-07-31T03:23:36.045Z,100.00
2022-07-31T03:26:04.445Z,100.00
2022-07-31T03:28:32.741Z,100.00
2022-07-31T03:31:00.638Z,100.00
2022-07-31T03:33:28.932Z,100.00
2022-07-31T03:35:57.982Z,100.00
2022-07-31T03:38:38.633Z,100.00
2022-07-31T03:41:10.390Z,100.00
2022-07-31T03:43:47.072Z,100.00
2022-07-31T03:46:18.187Z,100.00
2022-07-31T03:48:46.621Z,100.00
2022-07-31T03:51:15.377Z,100.00
2022-07-31T03:53:45.217Z,100.00
2022-07-31T03:56:14.114Z,100.00
2022-07-31T03:58:42.056Z,100.00
2022-07-31T04:01:16.594Z,100.00
2022-07-31T04:03:48.552Z,100.00
2022-07-31T04:06:16.312Z,100.00
2022-07-31T04:08:45.473Z,100.00
2022-07-31T04:11:13.925Z,100.00
2022-07-31T04:13:41.725Z,100.00
2022-07-31T04:16:09.554Z,100.00
2022-07-31T04:18:37.316Z,100.00
2022-07-31T04:21:05.264Z,100.00
2022-07-31T04:23:33.061Z,100.00
2022-07-31T04:26:02.209Z,100.00
2022-07-31T04:28:30.029Z,100.00
2022-07-31T04:30:57.987Z,100.00
2022-07-31T04:33:25.761Z,100.00
2022-07-31T04:35:54.217Z,100.00
2022-07-31T04:38:21.988Z,100.00
2022-07-31T04:40:49.910Z,100.00
2022-07-31T04:43:19.574Z,100.00
2022-07-31T04:45:47.379Z,100.00
2022-07-31T04:48:15.143Z,100.00
2022-07-31T04:50:42.904Z,100.00
2022-07-31T04:53:10.639Z,100.00
2022-07-31T04:55:38.447Z,100.00
2022-07-31T04:58:06.219Z,100.00
2022-07-31T05:00:35.461Z,100.00
2022-07-31T05:03:03.233Z,100.00
2022-07-31T05:05:31.072Z,100.00
2022-07-31T05:07:58.808Z,100.00
2022-07-31T05:10:44.098Z,100.00
2022-07-31T05:13:11.832Z,100.00
2022-07-31T05:15:40.947Z,100.00
2022-07-31T05:18:08.760Z,100.00
2022-07-31T05:20:36.562Z,100.00
2022-07-31T05:23:06.699Z,100.00
2022-07-31T05:25:34.735Z,100.00
2022-07-31T05:28:02.545Z,100.00
2022-07-31T05:30:30.893Z,100.00
2022-07-31T05:33:00.105Z,100.00
2022-07-31T05:35:27.967Z,100.00
2022-07-31T05:37:55.782Z,100.00
2022-07-31T05:40:23.572Z,100.00
2022-07-31T05:42:51.310Z,100.00
2022-07-31T05:45:19.253Z,100.00
2022-07-31T05:47:47.042Z,100.00
2022-07-31T05:50:16.795Z,100.00
2022-07-31T05:52:44.566Z,100.00
2022-07-31T05:55:12.381Z,100.00
2022-07-31T05:57:40.223Z,100.00
2022-07-31T06:00:09.754Z,100.00
2022-07-31T06:02:39.456Z,100.00
2022-07-31T06:05:07.556Z,100.00
2022-07-31T06:07:36.707Z,100.00
2022-07-31T06:10:05.415Z,100.00
2022-07-31T06:12:33.911Z,100.00
2022-07-31T06:15:01.826Z,100.00
2022-07-31T06:17:43.875Z,100.00
2022-07-31T06:20:14.092Z,100.00
2022-07-31T06:22:44.900Z,100.00
2022-07-31T06:25:13.642Z,100.00
2022-07-31T06:27:42.683Z,100.00
2022-07-31T06:30:11.990Z,100.00
2022-07-31T06:32:40.040Z,100.00
2022-07-31T06:35:08.679Z,100.00
2022-07-31T06:37:36.476Z,100.00
2022-07-31T06:40:06.833Z,100.00
2022-07-31T06:42:34.728Z,100.00
2022-07-31T06:45:02.549Z,100.00
2022-07-31T06:47:30.366Z,100.00
2022-07-31T06:49:58.289Z,100.00
2022-07-31T06:52:26.516Z,100.00
2022-07-31T06:54:54.326Z,100.00
2022-07-31T06:57:23.602Z,100.00
2022-07-31T06:59:51.454Z,100.00
2022-07-31T07:02:19.245Z,100.00
2022-07-31T07:05:05.401Z,100.00
2022-07-31T07:07:36.365Z,100.00
2022-07-31T07:10:05.041Z,100.00
2022-07-31T07:12:34.174Z,100.00
2022-07-31T07:15:03.517Z,100.00
2022-07-31T07:17:31.638Z,100.00
2022-07-31T07:19:59.387Z,100.00
2022-07-31T07:22:30.030Z,100.00
2022-07-31T07:25:00.916Z,100.00
2022-07-31T07:27:28.859Z,100.00
2022-07-31T07:29:58.558Z,100.00
2022-07-31T07:32:26.323Z,100.00
2022-07-31T07:34:59.611Z,100.00
2022-07-31T07:37:28.571Z,100.00
2022-07-31T07:39:56.632Z,100.00
2022-07-31T07:42:24.439Z,100.00
2022-07-31T07:44:52.212Z,100.00
2022-07-31T07:47:21.375Z,100.00
2022-07-31T07:49:49.208Z,100.00
2022-07-31T07:52:17.039Z,100.00
2022-07-31T07:54:44.868Z,100.00
2022-07-31T07:57:16.073Z,100.00
2022-07-31T07:59:44.335Z,100.00
2022-07-31T08:02:13.598Z,100.00
2022-07-31T08:04:47.296Z,100.00
2022-07-31T08:07:15.489Z,100.00
2022-07-31T08:09:43.307Z,100.00
2022-07-31T08:12:11.088Z,100.00
2022-07-31T08:14:38.853Z,100.00
2022-07-31T08:17:06.672Z,100.00
2022-07-31T08:19:34.471Z,100.00
2022-07-31T08:22:03.795Z,100.00
2022-07-31T08:24:31.762Z,100.00
2022-07-31T08:27:16.916Z,100.00
2022-07-31T08:29:49.391Z,100.00
2022-07-31T08:32:18.129Z,100.00
2022-07-31T08:34:46.383Z,100.00
2022-07-31T08:38:01.430Z,100.00
2022-07-31T08:40:07.996Z,100.00
2022-07-31T08:42:36.706Z,100.00
2022-07-31T08:45:07.613Z,100.00
2022-07-31T08:47:37.024Z,100.00
2022-07-31T08:50:06.366Z,100.00
2022-07-31T08:52:38.146Z,100.00
2022-07-31T08:55:09.445Z,100.00
2022-07-31T08:57:37.526Z,100.00
2022-07-31T09:00:07.339Z,100.00
2022-07-31T09:02:35.267Z,100.00
2022-07-31T09:05:03.077Z,100.00
2022-07-31T09:07:30.929Z,100.00
2022-07-31T09:10:00.825Z,100.00
2022-07-31T09:12:33.666Z,100.00
2022-07-31T09:15:02.631Z,100.00
2022-07-31T09:17:35.701Z,100.00
2022-07-31T09:20:04.668Z,100.00
2022-07-31T09:22:33.862Z,100.00
2022-07-31T09:25:13.068Z,100.00
2022-07-31T09:27:41.486Z,100.00
2022-07-31T09:30:10.469Z,100.00
2022-07-31T09:32:38.548Z,100.00
2022-07-31T09:35:12.220Z,100.00
2022-07-31T09:37:40.758Z,100.00
2022-07-31T09:40:11.611Z,100.00
2022-07-31T09:42:46.008Z,100.00
2022-07-31T09:45:20.945Z,100.00
2022-07-31T09:47:49.311Z,100.00
2022-07-31T09:50:25.169Z,100.00
2022-07-31T09:52:59.832Z,100.00
2022-07-31T09:55:29.512Z,100.00
2022-07-31T09:57:59.651Z,100.00
2022-07-31T10:00:28.912Z,100.00
2022-07-31T10:02:58.233Z,100.00
2022-07-31T10:05:27.601Z,100.00
2022-07-31T10:08:00.174Z,100.00
2022-07-31T10:10:30.159Z,100.00
2022-07-31T10:13:03.043Z,100.00
2022-07-31T10:15:32.370Z,100.00
2022-07-31T10:18:02.160Z,100.00
2022-07-31T10:20:31.859Z,100.00
2022-07-31T10:23:04.893Z,100.00
2022-07-31T10:25:40.245Z,100.00
2022-07-31T10:28:10.328Z,100.00
2022-07-31T10:30:39.106Z,100.00
2022-07-31T10:33:27.992Z,100.00
2022-07-31T10:36:02.672Z,100.00
2022-07-31T10:38:38.525Z,100.00
2022-07-31T10:41:13.877Z,100.00
2022-07-31T10:43:47.237Z,100.00
2022-07-31T10:46:15.086Z,100.00
2022-07-31T10:48:53.004Z,100.00
2022-07-31T10:51:22.474Z,100.00
2022-07-31T10:53:57.767Z,100.00
2022-07-31T10:56:27.960Z,100.00
2022-07-31T10:58:58.039Z,100.00
2022-07-31T11:01:26.631Z,100.00
2022-07-31T11:04:00.666Z,100.00
2022-07-31T11:06:39.633Z,100.00
2022-07-31T11:09:07.504Z,100.00
2022-07-31T11:11:38.458Z,100.00
2022-07-31T11:14:06.289Z,100.00
2022-07-31T11:16:34.171Z,100.00
2022-07-31T11:19:03.793Z,100.00
2022-07-31T11:21:40.289Z,100.00
2022-07-31T11:24:16.372Z,100.00
2022-07-31T11:26:51.630Z,100.00
2022-07-31T11:30:00.627Z,100.00
2022-07-31T11:32:25.169Z,100.00
2022-07-31T11:34:55.821Z,100.00
2022-07-31T11:37:25.704Z,100.00
2022-07-31T11:39:54.829Z,100.00
2022-07-31T11:42:29.524Z,100.00
2022-07-31T11:45:10.734Z,100.00
2022-07-31T11:48:12.478Z,100.00
2022-07-31T11:50:30.866Z,100.00
2022-07-31T11:53:04.141Z,100.00
2022-07-31T11:55:32.228Z,100.00
2022-07-31T11:58:01.471Z,100.00
2022-07-31T12:00:30.097Z,99.09
2022-07-31T12:02:58.987Z,94.14
2022-07-31T12:05:37.973Z,91.19
2022-07-31T12:08:08.068Z,95.12
2022-07-31T12:10:36.413Z,90.49
2022-07-31T12:13:05.641Z,86.53
2022-07-31T12:15:33.485Z,77.43
2022-07-31T12:18:02.221Z,84.31
2022-07-31T12:20:35.998Z,84.71
2022-07-31T12:23:06.462Z,74.37
2022-07-31T12:25:45.733Z,87.76
2022-07-31T12:28:16.425Z,87.74
2022-07-31T12:30:44.801Z,79.64
2022-07-31T12:33:14.141Z,76.57
2022-07-31T12:35:55.899Z,81.73
2022-07-31T12:38:48.049Z,78.58
2022-07-31T12:41:14.230Z,70.22
2022-07-31T12:43:51.800Z,74.12
2022-07-31T12:46:22.404Z,69.81
2022-07-31T12:48:50.564Z,70.81
2022-07-31T12:51:20.186Z,74.19
2022-07-31T12:54:09.085Z,77.76
2022-07-31T12:56:37.259Z,78.83
2022-07-31T12:59:07.339Z,77.08
2022-07-31T13:01:35.272Z,85.47
2022-07-31T13:04:03.545Z,77.51
2022-07-31T13:06:31.975Z,91.85
2022-07-31T13:08:59.783Z,79.95
2022-07-31T13:11:30.378Z,79.66
2022-07-31T13:14:16.269Z,85.54
2022-07-31T13:16:44.235Z,92.45
2022-07-31T13:19:12.909Z,98.37
2022-07-31T13:21:49.274Z,91.02
2022-07-31T13:24:18.906Z,87.84
2022-07-31T13:26:46.810Z,90.45
2022-07-31T13:29:16.258Z,94.60
2022-07-31T13:31:45.210Z,96.38
2022-07-31T13:34:13.140Z,94.80
2022-07-31T13:36:40.934Z,93.32
2022-07-31T13:39:09.186Z,98.09
2022-07-31T13:41:39.211Z,97.49
2022-07-31T13:44:07.635Z,100.00
2022-07-31T13:46:37.152Z,100.00
2022-07-31T13:49:08.677Z,100.00
2022-07-31T13:51:37.264Z,100.00
2022-07-31T13:54:05.353Z,100.00
2022-07-31T13:56:39.290Z,100.00
2022-07-31T13:59:11.487Z,100.00
2022-07-31T14:02:03.325Z,100.00
2022-07-31T14:04:32.137Z,100.00
2022-07-31T14:07:04.030Z,100.00
2022-07-31T14:09:34.141Z,100.00
2022-07-31T14:12:04.599Z,100.00
2022-07-31T14:14:33.528Z,100.00
2022-07-31T14:17:03.103Z,100.00
2022-07-31T14:19:43.939Z,100.00
2022-07-31T14:22:13.142Z,98.30
2022-07-31T14:24:41.352Z,100.00
2022-07-31T14:27:10.936Z,100.00
2022-07-31T14:29:38.745Z,100.00
2022-07-31T14:32:08.912Z,100.00
2022-07-31T14:34:36.868Z,95.09
2022-07-31T14:37:05.398Z,84.49
2022-07-31T14:39:33.389Z,79.19
2022-07-31T14:42:01.245Z,78.78
2022-07-31T14:44:29.242Z,88.67
2022-07-31T14:46:57.151Z,96.95
2022-07-31T14:49:26.482Z,95.26
2022-07-31T14:52:14.175Z,94.02
2022-07-31T14:54:41.932Z,100.00
2022-07-31T14:57:09.793Z,100.00
2022-07-31T14:59:37.591Z,100.00
2022-07-31T15:02:05.985Z,100.00
2022-07-31T15:04:35.132Z,100.00
2022-07-31T15:07:32.438Z,100.00
2022-07-31T15:09:51.442Z,100.00
2022-07-31T15:12:19.819Z,96.21
2022-07-31T15:14:48.160Z,98.68
2022-07-31T15:17:15.984Z,100.00
2022-07-31T15:19:45.134Z,100.00
2022-07-31T15:22:17.039Z,100.00
2022-07-31T15:24:48.933Z,100.00
2022-07-31T15:27:18.086Z,100.00
2022-07-31T15:30:06.028Z,100.00
2022-07-31T15:32:33.790Z,100.00
2022-07-31T15:35:03.387Z,100.00
2022-07-31T15:37:31.221Z,100.00
2022-07-31T15:40:03.902Z,100.00
2022-07-31T15:42:32.211Z,100.00
2022-07-31T15:45:00.225Z,100.00
2022-07-31T15:47:27.977Z,100.00
2022-07-31T15:49:55.935Z,100.00
2022-07-31T15:52:25.332Z,100.00
2022-07-31T15:54:53.398Z,100.00
2022-07-31T15:57:21.424Z,100.00
2022-07-31T15:59:49.911Z,100.00
2022-07-31T16:02:18.326Z,100.00
2022-07-31T16:04:52.569Z,100.00
2022-07-31T16:08:29.263Z,100.00
2022-07-31T16:10:16.773Z,100.00
2022-07-31T16:12:45.593Z,100.00
2022-07-31T16:15:13.676Z,100.00
2022-07-31T16:17:41.541Z,100.00
2022-07-31T16:20:11.956Z,100.00
2022-07-31T16:22:41.377Z,100.00
2022-07-31T16:25:11.925Z,100.00
2022-07-31T16:27:40.621Z,100.00
2022-07-31T16:30:09.091Z,100.00
2022-07-31T16:32:36.912Z,100.00
2022-07-31T16:35:07.106Z,100.00
2022-07-31T16:37:49.889Z,100.00
2022-07-31T16:40:26.876Z,100.00
2022-07-31T16:42:57.560Z,100.00
2022-07-31T16:45:25.365Z,100.00
2022-07-31T16:47:53.170Z,100.00
2022-07-31T16:50:21.033Z,100.00
2022-07-31T16:52:52.717Z,100.00
2022-07-31T16:55:59.486Z,100.00
2022-07-31T16:58:13.710Z,100.00
2022-07-31T17:00:41.610Z,100.00
2022-07-31T17:03:58.622Z,100.00
2022-07-31T17:05:57.515Z,100.00
2022-07-31T17:08:25.340Z,100.00
2022-07-31T17:10:55.010Z,100.00
2022-07-31T17:13:23.507Z,100.00
2022-07-31T17:15:51.465Z,100.00
2022-07-31T17:18:24.851Z,100.00
2022-07-31T17:20:53.206Z,100.00
2022-07-31T17:23:43.378Z,100.00
2022-07-31T17:26:21.233Z,100.00
2022-07-31T17:28:50.729Z,100.00
2022-07-31T17:31:19.211Z,100.00
2022-07-31T17:33:59.227Z,100.00
2022-07-31T17:36:29.809Z,100.00
2022-07-31T17:38:58.032Z,100.00
2022-07-31T17:41:27.312Z,100.00
2022-07-31T17:43:55.279Z,100.00
2022-07-31T17:46:34.602Z,100.00
2022-07-31T17:49:05.826Z,100.00
2022-07-31T17:51:34.226Z,100.00
2022-07-31T17:54:02.084Z,100.00
2022-07-31T17:56:31.529Z,100.00
2022-07-31T17:59:04.516Z,100.00
2022-07-31T18:01:34.325Z,100.00
2022-07-31T18:04:02.552Z,100.00
2022-07-31T18:06:30.697Z,100.00
2022-07-31T18:09:00.124Z,100.00
2022-07-31T18:11:28.194Z,100.00
2022-07-31T18:14:01.110Z,100.00
2022-07-31T18:16:31.764Z,100.00
2022-07-31T18:18:59.782Z,100.00
2022-07-31T18:21:27.791Z,100.00
2022-07-31T18:23:55.592Z,100.00
2022-07-31T18:26:24.102Z,100.00
2022-07-31T18:28:51.932Z,100.00
2022-07-31T18:31:34.364Z,100.00
2022-07-31T18:34:03.933Z,100.00
2022-07-31T18:36:31.977Z,100.00
2022-07-31T18:39:00.033Z,100.00
2022-07-31T18:41:28.312Z,100.00
2022-07-31T18:43:56.650Z,100.00
2022-07-31T18:46:25.925Z,100.00
2022-07-31T18:48:55.818Z,100.00
2022-07-31T18:51:24.517Z,100.00
2022-07-31T18:53:54.471Z,100.00
2022-07-31T18:56:23.306Z,100.00
2022-07-31T18:58:51.347Z,100.00
2022-07-31T19:01:19.459Z,100.00
2022-07-31T19:03:48.741Z,100.00
2022-07-31T19:06:16.659Z,100.00
2022-07-31T19:08:44.594Z,100.00
2022-07-31T19:11:12.942Z,100.00
2022-07-31T19:13:40.685Z,100.00
2022-07-31T19:16:08.500Z,100.00
2022-07-31T19:18:37.668Z,100.00
2022-07-31T19:21:22.849Z,100.00
2022-07-31T19:23:55.383Z,100.00
2022-07-31T19:26:23.203Z,100.00
2022-07-31T19:28:51.340Z,100.00
2022-07-31T19:31:19.177Z,100.00
2022-07-31T19:33:47.250Z,100.00
2022-07-31T19:36:16.407Z,100.00
2022-07-31T19:38:45.165Z,100.00
2022-07-31T19:41:14.656Z,100.00
2022-07-31T19:43:44.597Z,100.00
2022-07-31T19:46:12.992Z,100.00
2022-07-31T19:48:41.928Z,100.00
2022-07-31T19:51:09.885Z,100.00
2022-07-31T19:53:39.342Z,100.00
2022-07-31T19:56:07.303Z,100.00
2022-07-31T19:58:35.708Z,100.00
2022-07-31T20:01:03.885Z,100.00
2022-07-31T20:03:31.949Z,100.00
2022-07-31T20:05:59.885Z,100.00
2022-07-31T20:08:32.819Z,100.00
2022-07-31T20:11:03.905Z,100.00
2022-07-31T20:13:32.943Z,100.00
2022-07-31T20:16:01.222Z,100.00
2022-07-31T20:18:29.614Z,100.00
2022-07-31T20:20:59.626Z,100.00
2022-07-31T20:23:27.739Z,100.00
2022-07-31T20:25:55.923Z,100.00
2022-07-31T20:28:25.095Z,100.00
2022-07-31T20:30:52.933Z,100.00
2022-07-31T20:33:21.089Z,100.00
2022-07-31T20:35:50.302Z,100.00
2022-07-31T20:38:18.731Z,100.00
2022-07-31T20:40:54.016Z,100.00
2022-07-31T20:43:23.289Z,100.00
2022-07-31T20:45:52.899Z,100.00
2022-07-31T20:48:24.148Z,100.00
2022-07-31T20:50:52.720Z,100.00
2022-07-31T20:53:21.571Z,100.00
2022-07-31T20:55:50.308Z,100.00
2022-07-31T20:58:18.691Z,100.00
2022-07-31T21:00:47.528Z,100.00
2022-07-31T21:03:17.508Z,100.00
2022-07-31T21:05:45.829Z,100.00
2022-07-31T21:08:13.821Z,100.00
2022-07-31T21:10:42.057Z,100.00
2022-07-31T21:13:10.248Z,100.00
2022-07-31T21:15:41.871Z,100.00
2022-07-31T21:18:12.519Z,100.00
2022-07-31T21:20:52.480Z,100.00
2022-07-31T21:23:22.565Z,100.00
2022-07-31T21:25:51.434Z,100.00
2022-07-31T21:28:19.987Z,100.00
2022-07-31T21:30:48.709Z,100.00
2022-07-31T21:33:18.161Z,100.00
2022-07-31T21:35:48.154Z,100.00
2022-07-31T21:38:16.778Z,100.00
2022-07-31T21:40:45.565Z,100.00
2022-07-31T21:43:16.005Z,100.00
2022-07-31T21:45:55.220Z,100.00
2022-07-31T21:48:25.596Z,100.00
2022-07-31T21:50:55.690Z,100.00
2022-07-31T21:53:24.076Z,100.00
2022-07-31T21:55:51.846Z,100.00
2022-07-31T21:58:19.864Z,100.00
2022-07-31T22:00:48.152Z,100.00
2022-07-31T22:03:16.010Z,100.00
2022-07-31T22:05:57.701Z,100.00
2022-07-31T22:08:26.881Z,100.00
2022-07-31T22:10:54.809Z,100.00
2022-07-31T22:13:22.629Z,100.00
2022-07-31T22:15:59.811Z,100.00
2022-07-31T22:18:28.801Z,100.00
2022-07-31T22:20:57.127Z,100.00
2022-07-31T22:23:27.393Z,100.00
2022-07-31T22:25:55.706Z,100.00
2022-07-31T22:28:24.965Z,100.00
2022-07-31T22:30:53.748Z,100.00
2022-07-31T22:33:21.938Z,100.00
2022-07-31T22:36:00.016Z,100.00
2022-07-31T22:38:31.618Z,100.00
2022-07-31T22:41:00.082Z,100.00
2022-07-31T22:44:09.863Z,100.00
2022-07-31T22:46:16.489Z,100.00
2022-07-31T22:48:46.371Z,100.00
2022-07-31T22:51:15.418Z,100.00
2022-07-31T22:53:45.547Z,100.00
2022-07-31T22:56:16.875Z,100.00
2022-07-31T22:58:44.732Z,100.00
2022-07-31T23:01:12.545Z,100.00
2022-07-31T23:03:40.364Z,100.00
2022-07-31T23:06:31.414Z,100.00
2022-07-31T23:08:57.796Z,100.00
2022-07-31T23:11:25.855Z,100.00
2022-07-31T23:13:53.916Z,100.00
2022-07-31T23:16:21.965Z,100.00
2022-07-31T23:18:50.350Z,100.00
2022-07-31T23:21:18.646Z,100.00
2022-07-31T23:23:49.056Z,100.00
2022-07-31T23:26:19.529Z,100.00
2022-07-31T23:28:48.022Z,100.00
2022-07-31T23:31:15.891Z,100.00
2022-07-31T23:33:44.157Z,100.00
2022-07-31T23:36:12.313Z,100.00
2022-07-31T23:38:40.567Z,100.00
2022-07-31T23:41:08.486Z,100.00
2022-07-31T23:43:36.945Z,100.00
2022-07-31T23:46:05.261Z,100.00
2022-07-31T23:48:33.267Z,100.00
2022-07-31T23:51:01.103Z,100.00
2022-07-31T23:53:28.910Z,100.00
2022-07-31T23:55:56.773Z,100.00
2022-07-31T23:58:24.560Z,100.00
